sensor_id;sensor_type;location;lat;lon;timestamp;temperature;humidity
31729;DHT22;18309;43.658;1.312;2023-04-29T00:02:01;19.20;99.30
31729;DHT22;18309;43.658;1.312;2023-04-29T00:04:27;19.10;99.40
31729;DHT22;18309;43.658;1.312;2023-04-29T00:06:53;19.10;99.50
31729;DHT22;18309;43.658;1.312;2023-04-29T00:09:20;19.10;99.60
31729;DHT22;18309;43.658;1.312;2023-04-29T00:11:45;19.10;99.70
31729;DHT22;18309;43.658;1.312;2023-04-29T00:14:12;19.00;99.70
31729;DHT22;18309;43.658;1.312;2023-04-29T00:16:38;19.00;99.70
31729;DHT22;18309;43.658;1.312;2023-04-29T00:19:03;19.00;99.80
31729;DHT22;18309;43.658;1.312;2023-04-29T00:21:29;19.00;99.70
31729;DHT22;18309;43.658;1.312;2023-04-29T00:23:55;19.00;99.80
31729;DHT22;18309;43.658;1.312;2023-04-29T00:26:20;19.00;99.80
31729;DHT22;18309;43.658;1.312;2023-04-29T00:28:46;19.00;99.90
31729;DHT22;18309;43.658;1.312;2023-04-29T00:31:12;19.00;99.90
31729;DHT22;18309;43.658;1.312;2023-04-29T00:33:38;19.00;99.90
31729;DHT22;18309;43.658;1.312;2023-04-29T00:36:05;19.00;99.90
31729;DHT22;18309;43.658;1.312;2023-04-29T00:38:31;19.00;99.90
31729;DHT22;18309;43.658;1.312;2023-04-29T00:40:57;19.00;99.90
31729;DHT22;18309;43.658;1.312;2023-04-29T00:43:22;19.00;99.90
31729;DHT22;18309;43.658;1.312;2023-04-29T00:45:48;19.00;99.90
31729;DHT22;18309;43.658;1.312;2023-04-29T00:48:15;19.00;99.90
31729;DHT22;18309;43.658;1.312;2023-04-29T00:50:42;19.00;99.90
31729;DHT22;18309;43.658;1.312;2023-04-29T00:53:09;19.00;99.90
31729;DHT22;18309;43.658;1.312;2023-04-29T00:55:37;19.00;99.90
31729;DHT22;18309;43.658;1.312;2023-04-29T00:58:03;19.00;99.90
31729;DHT22;18309;43.658;1.312;2023-04-29T01:00:29;19.00;99.90
31729;DHT22;18309;43.658;1.312;2023-04-29T01:02:56;19.00;99.90
31729;DHT22;18309;43.658;1.312;2023-04-29T01:05:25;19.00;99.90
31729;DHT22;18309;43.658;1.312;2023-04-29T01:10:52;18.90;99.90
31729;DHT22;18309;43.658;1.312;2023-04-29T01:16:14;19.00;99.90
31729;DHT22;18309;43.658;1.312;2023-04-29T01:18:47;19.00;99.90
31729;DHT22;18309;43.658;1.312;2023-04-29T01:21:14;19.00;99.90
31729;DHT22;18309;43.658;1.312;2023-04-29T01:23:40;18.90;99.90
31729;DHT22;18309;43.658;1.312;2023-04-29T01:26:06;18.90;99.90
31729;DHT22;18309;43.658;1.312;2023-04-29T01:31:43;18.90;99.90
31729;DHT22;18309;43.658;1.312;2023-04-29T01:34:18;18.90;99.90
31729;DHT22;18309;43.658;1.312;2023-04-29T01:39:26;18.90;99.90
31729;DHT22;18309;43.658;1.312;2023-04-29T01:42:01;18.90;99.90
31729;DHT22;18309;43.658;1.312;2023-04-29T01:44:28;18.90;99.90
31729;DHT22;18309;43.658;1.312;2023-04-29T01:46:56;18.90;99.90
31729;DHT22;18309;43.658;1.312;2023-04-29T01:49:27;18.90;99.90
31729;DHT22;18309;43.658;1.312;2023-04-29T01:51:53;18.90;99.90
31729;DHT22;18309;43.658;1.312;2023-04-29T01:54:19;18.90;99.90
31729;DHT22;18309;43.658;1.312;2023-04-29T01:56:47;18.80;99.90
31729;DHT22;18309;43.658;1.312;2023-04-29T01:59:13;18.80;99.90
31729;DHT22;18309;43.658;1.312;2023-04-29T02:01:38;18.90;99.90
31729;DHT22;18309;43.658;1.312;2023-04-29T02:04:04;18.80;99.90
31729;DHT22;18309;43.658;1.312;2023-04-29T02:06:30;18.80;99.90
31729;DHT22;18309;43.658;1.312;2023-04-29T02:08:58;18.80;99.90
31729;DHT22;18309;43.658;1.312;2023-04-29T02:11:24;18.80;99.90
31729;DHT22;18309;43.658;1.312;2023-04-29T02:13:49;18.80;99.90
31729;DHT22;18309;43.658;1.312;2023-04-29T02:16:15;18.80;99.90
31729;DHT22;18309;43.658;1.312;2023-04-29T02:18:41;18.80;99.90
31729;DHT22;18309;43.658;1.312;2023-04-29T02:21:07;18.80;99.90
31729;DHT22;18309;43.658;1.312;2023-04-29T02:23:33;18.80;99.90
31729;DHT22;18309;43.658;1.312;2023-04-29T02:25:59;18.80;99.90
31729;DHT22;18309;43.658;1.312;2023-04-29T02:28:26;18.80;99.90
31729;DHT22;18309;43.658;1.312;2023-04-29T02:30:51;18.80;99.90
31729;DHT22;18309;43.658;1.312;2023-04-29T02:33:17;18.80;99.90
31729;DHT22;18309;43.658;1.312;2023-04-29T02:35:43;18.80;99.90
31729;DHT22;18309;43.658;1.312;2023-04-29T02:38:09;18.80;99.90
31729;DHT22;18309;43.658;1.312;2023-04-29T02:40:45;18.80;99.90
31729;DHT22;18309;43.658;1.312;2023-04-29T02:43:12;18.80;99.90
31729;DHT22;18309;43.658;1.312;2023-04-29T02:45:38;18.70;99.90
31729;DHT22;18309;43.658;1.312;2023-04-29T02:48:05;18.80;99.90
31729;DHT22;18309;43.658;1.312;2023-04-29T02:50:31;18.70;99.90
31729;DHT22;18309;43.658;1.312;2023-04-29T02:52:57;18.70;99.90
31729;DHT22;18309;43.658;1.312;2023-04-29T02:55:23;18.70;99.90
31729;DHT22;18309;43.658;1.312;2023-04-29T02:57:48;18.70;99.90
31729;DHT22;18309;43.658;1.312;2023-04-29T03:00:14;18.70;99.90
31729;DHT22;18309;43.658;1.312;2023-04-29T03:02:40;18.70;99.90
31729;DHT22;18309;43.658;1.312;2023-04-29T03:05:06;18.70;99.90
31729;DHT22;18309;43.658;1.312;2023-04-29T03:07:31;18.70;99.90
31729;DHT22;18309;43.658;1.312;2023-04-29T03:09:57;18.70;99.90
31729;DHT22;18309;43.658;1.312;2023-04-29T03:12:23;18.70;99.90
31729;DHT22;18309;43.658;1.312;2023-04-29T03:14:49;18.70;99.90
31729;DHT22;18309;43.658;1.312;2023-04-29T03:17:16;18.70;99.90
31729;DHT22;18309;43.658;1.312;2023-04-29T03:19:42;18.60;99.90
31729;DHT22;18309;43.658;1.312;2023-04-29T03:22:07;18.60;99.90
31729;DHT22;18309;43.658;1.312;2023-04-29T03:24:38;18.60;99.90
31729;DHT22;18309;43.658;1.312;2023-04-29T03:27:04;18.60;99.90
31729;DHT22;18309;43.658;1.312;2023-04-29T03:29:33;18.60;99.90
31729;DHT22;18309;43.658;1.312;2023-04-29T03:31:59;18.60;99.90
31729;DHT22;18309;43.658;1.312;2023-04-29T03:34:24;18.60;99.90
31729;DHT22;18309;43.658;1.312;2023-04-29T03:36:51;18.60;99.90
31729;DHT22;18309;43.658;1.312;2023-04-29T03:39:17;18.60;99.90
31729;DHT22;18309;43.658;1.312;2023-04-29T03:41:42;18.60;99.90
31729;DHT22;18309;43.658;1.312;2023-04-29T03:44:08;18.60;99.90
31729;DHT22;18309;43.658;1.312;2023-04-29T03:46:34;18.50;99.90
31729;DHT22;18309;43.658;1.312;2023-04-29T03:49:00;18.50;99.90
31729;DHT22;18309;43.658;1.312;2023-04-29T03:51:26;18.60;99.90
31729;DHT22;18309;43.658;1.312;2023-04-29T03:53:53;18.50;99.90
31729;DHT22;18309;43.658;1.312;2023-04-29T03:56:21;18.50;99.90
31729;DHT22;18309;43.658;1.312;2023-04-29T03:58:47;18.50;99.90
31729;DHT22;18309;43.658;1.312;2023-04-29T04:01:13;18.50;99.90
31729;DHT22;18309;43.658;1.312;2023-04-29T04:03:39;18.40;99.90
31729;DHT22;18309;43.658;1.312;2023-04-29T04:06:05;18.40;99.90
31729;DHT22;18309;43.658;1.312;2023-04-29T04:08:31;18.40;99.90
31729;DHT22;18309;43.658;1.312;2023-04-29T04:10:56;18.40;99.90
31729;DHT22;18309;43.658;1.312;2023-04-29T04:13:28;18.40;99.90
31729;DHT22;18309;43.658;1.312;2023-04-29T04:15:53;18.40;99.90
31729;DHT22;18309;43.658;1.312;2023-04-29T04:18:19;18.40;99.90
31729;DHT22;18309;43.658;1.312;2023-04-29T04:20:45;18.40;99.90
31729;DHT22;18309;43.658;1.312;2023-04-29T04:23:11;18.40;99.90
31729;DHT22;18309;43.658;1.312;2023-04-29T04:25:37;18.40;99.90
31729;DHT22;18309;43.658;1.312;2023-04-29T04:28:03;18.40;99.90
31729;DHT22;18309;43.658;1.312;2023-04-29T04:30:28;18.40;99.90
31729;DHT22;18309;43.658;1.312;2023-04-29T04:32:54;18.40;99.90
31729;DHT22;18309;43.658;1.312;2023-04-29T04:35:20;18.40;99.90
31729;DHT22;18309;43.658;1.312;2023-04-29T04:37:45;18.30;99.90
31729;DHT22;18309;43.658;1.312;2023-04-29T04:40:13;18.30;99.90
31729;DHT22;18309;43.658;1.312;2023-04-29T04:42:38;18.30;99.90
31729;DHT22;18309;43.658;1.312;2023-04-29T04:45:05;18.30;99.90
31729;DHT22;18309;43.658;1.312;2023-04-29T04:47:30;18.30;99.90
31729;DHT22;18309;43.658;1.312;2023-04-29T04:49:56;18.30;99.90
31729;DHT22;18309;43.658;1.312;2023-04-29T04:52:22;18.30;99.90
31729;DHT22;18309;43.658;1.312;2023-04-29T04:54:48;18.30;99.90
31729;DHT22;18309;43.658;1.312;2023-04-29T04:57:13;18.30;99.90
31729;DHT22;18309;43.658;1.312;2023-04-29T04:59:39;18.30;99.90
31729;DHT22;18309;43.658;1.312;2023-04-29T05:02:05;18.30;99.90
31729;DHT22;18309;43.658;1.312;2023-04-29T05:04:31;18.30;99.90
31729;DHT22;18309;43.658;1.312;2023-04-29T05:06:56;18.30;99.90
31729;DHT22;18309;43.658;1.312;2023-04-29T05:09:22;18.30;99.90
31729;DHT22;18309;43.658;1.312;2023-04-29T05:11:48;18.30;99.90
31729;DHT22;18309;43.658;1.312;2023-04-29T05:14:13;18.30;99.90
31729;DHT22;18309;43.658;1.312;2023-04-29T05:16:39;18.30;99.90
31729;DHT22;18309;43.658;1.312;2023-04-29T05:19:05;18.30;99.90
31729;DHT22;18309;43.658;1.312;2023-04-29T05:21:30;18.30;99.90
31729;DHT22;18309;43.658;1.312;2023-04-29T05:23:56;18.30;99.90
31729;DHT22;18309;43.658;1.312;2023-04-29T05:26:22;18.30;99.90
31729;DHT22;18309;43.658;1.312;2023-04-29T05:28:48;18.30;99.90
31729;DHT22;18309;43.658;1.312;2023-04-29T05:31:13;18.30;99.90
31729;DHT22;18309;43.658;1.312;2023-04-29T05:33:39;18.30;99.90
31729;DHT22;18309;43.658;1.312;2023-04-29T05:36:05;18.30;99.90
31729;DHT22;18309;43.658;1.312;2023-04-29T05:38:31;18.20;99.90
31729;DHT22;18309;43.658;1.312;2023-04-29T05:40:57;18.20;99.90
31729;DHT22;18309;43.658;1.312;2023-04-29T05:43:23;18.20;99.90
31729;DHT22;18309;43.658;1.312;2023-04-29T05:45:49;18.20;99.90
31729;DHT22;18309;43.658;1.312;2023-04-29T05:48:15;18.20;99.90
31729;DHT22;18309;43.658;1.312;2023-04-29T05:50:41;18.20;99.90
31729;DHT22;18309;43.658;1.312;2023-04-29T05:53:08;18.20;99.90
31729;DHT22;18309;43.658;1.312;2023-04-29T05:55:33;18.20;99.90
31729;DHT22;18309;43.658;1.312;2023-04-29T05:57:59;18.30;99.90
31729;DHT22;18309;43.658;1.312;2023-04-29T06:00:25;18.20;99.90
31729;DHT22;18309;43.658;1.312;2023-04-29T06:02:51;18.20;99.90
31729;DHT22;18309;43.658;1.312;2023-04-29T06:05:17;18.30;99.90
31729;DHT22;18309;43.658;1.312;2023-04-29T06:07:42;18.30;99.90
31729;DHT22;18309;43.658;1.312;2023-04-29T06:10:09;18.30;99.90
31729;DHT22;18309;43.658;1.312;2023-04-29T06:12:35;18.30;99.90
31729;DHT22;18309;43.658;1.312;2023-04-29T06:15:01;18.30;99.90
31729;DHT22;18309;43.658;1.312;2023-04-29T06:17:27;18.30;99.90
31729;DHT22;18309;43.658;1.312;2023-04-29T06:19:56;18.30;99.90
31729;DHT22;18309;43.658;1.312;2023-04-29T06:22:22;18.30;99.90
31729;DHT22;18309;43.658;1.312;2023-04-29T06:24:48;18.30;99.90
31729;DHT22;18309;43.658;1.312;2023-04-29T06:27:17;18.30;99.90
31729;DHT22;18309;43.658;1.312;2023-04-29T06:29:42;18.30;99.90
31729;DHT22;18309;43.658;1.312;2023-04-29T06:32:08;18.30;99.90
31729;DHT22;18309;43.658;1.312;2023-04-29T06:34:34;18.30;99.90
31729;DHT22;18309;43.658;1.312;2023-04-29T06:37:00;18.30;99.90
31729;DHT22;18309;43.658;1.312;2023-04-29T06:39:26;18.10;99.90
31729;DHT22;18309;43.658;1.312;2023-04-29T06:41:51;17.90;99.90
31729;DHT22;18309;43.658;1.312;2023-04-29T06:44:17;17.60;99.90
31729;DHT22;18309;43.658;1.312;2023-04-29T06:46:44;17.30;99.90
31729;DHT22;18309;43.658;1.312;2023-04-29T06:49:09;17.10;99.90
31729;DHT22;18309;43.658;1.312;2023-04-29T06:51:38;17.20;99.90
31729;DHT22;18309;43.658;1.312;2023-04-29T06:54:04;17.10;99.90
31729;DHT22;18309;43.658;1.312;2023-04-29T06:56:30;16.90;99.90
31729;DHT22;18309;43.658;1.312;2023-04-29T06:58:55;16.70;99.90
31729;DHT22;18309;43.658;1.312;2023-04-29T07:01:21;16.80;99.90
31729;DHT22;18309;43.658;1.312;2023-04-29T07:03:47;16.80;99.90
31729;DHT22;18309;43.658;1.312;2023-04-29T07:06:13;16.70;99.90
31729;DHT22;18309;43.658;1.312;2023-04-29T07:08:38;16.80;99.90
31729;DHT22;18309;43.658;1.312;2023-04-29T07:11:04;16.90;99.90
31729;DHT22;18309;43.658;1.312;2023-04-29T07:13:30;17.00;99.90
31729;DHT22;18309;43.658;1.312;2023-04-29T07:15:56;16.70;99.90
31729;DHT22;18309;43.658;1.312;2023-04-29T07:18:22;16.70;99.90
31729;DHT22;18309;43.658;1.312;2023-04-29T07:20:47;16.60;99.90
31729;DHT22;18309;43.658;1.312;2023-04-29T07:23:15;16.60;99.90
31729;DHT22;18309;43.658;1.312;2023-04-29T07:25:41;16.60;99.90
31729;DHT22;18309;43.658;1.312;2023-04-29T07:28:06;16.60;99.90
31729;DHT22;18309;43.658;1.312;2023-04-29T07:30:35;16.70;99.90
31729;DHT22;18309;43.658;1.312;2023-04-29T07:33:02;16.70;99.90
31729;DHT22;18309;43.658;1.312;2023-04-29T07:35:28;16.80;99.90
31729;DHT22;18309;43.658;1.312;2023-04-29T07:37:55;16.70;99.90
31729;DHT22;18309;43.658;1.312;2023-04-29T07:40:21;16.80;99.90
31729;DHT22;18309;43.658;1.312;2023-04-29T07:42:47;16.90;99.90
31729;DHT22;18309;43.658;1.312;2023-04-29T07:45:12;17.00;99.90
31729;DHT22;18309;43.658;1.312;2023-04-29T07:47:39;17.00;99.90
31729;DHT22;18309;43.658;1.312;2023-04-29T07:50:05;17.00;99.90
31729;DHT22;18309;43.658;1.312;2023-04-29T07:52:31;17.00;99.90
31729;DHT22;18309;43.658;1.312;2023-04-29T07:54:57;17.00;99.90
31729;DHT22;18309;43.658;1.312;2023-04-29T07:57:22;17.00;99.90
31729;DHT22;18309;43.658;1.312;2023-04-29T07:59:54;17.10;99.90
31729;DHT22;18309;43.658;1.312;2023-04-29T08:02:20;17.10;99.90
31729;DHT22;18309;43.658;1.312;2023-04-29T08:04:46;16.90;99.90
31729;DHT22;18309;43.658;1.312;2023-04-29T08:07:12;16.80;99.90
31729;DHT22;18309;43.658;1.312;2023-04-29T08:09:38;16.80;99.90
31729;DHT22;18309;43.658;1.312;2023-04-29T08:12:04;17.00;99.90
31729;DHT22;18309;43.658;1.312;2023-04-29T08:14:29;16.90;99.90
31729;DHT22;18309;43.658;1.312;2023-04-29T08:16:55;17.00;99.90
31729;DHT22;18309;43.658;1.312;2023-04-29T08:19:21;16.80;99.90
31729;DHT22;18309;43.658;1.312;2023-04-29T08:21:47;16.90;99.90
31729;DHT22;18309;43.658;1.312;2023-04-29T08:24:13;16.90;99.90
31729;DHT22;18309;43.658;1.312;2023-04-29T08:26:41;16.90;99.90
31729;DHT22;18309;43.658;1.312;2023-04-29T08:29:07;17.00;99.90
31729;DHT22;18309;43.658;1.312;2023-04-29T08:31:33;17.10;99.90
31729;DHT22;18309;43.658;1.312;2023-04-29T08:33:59;17.10;99.90
31729;DHT22;18309;43.658;1.312;2023-04-29T08:36:25;17.10;99.90
31729;DHT22;18309;43.658;1.312;2023-04-29T08:38:53;17.20;99.90
31729;DHT22;18309;43.658;1.312;2023-04-29T08:41:19;17.20;99.90
31729;DHT22;18309;43.658;1.312;2023-04-29T08:43:44;17.40;99.90
31729;DHT22;18309;43.658;1.312;2023-04-29T08:46:10;17.50;99.90
31729;DHT22;18309;43.658;1.312;2023-04-29T08:48:37;17.50;99.90
31729;DHT22;18309;43.658;1.312;2023-04-29T08:51:07;17.40;99.90
31729;DHT22;18309;43.658;1.312;2023-04-29T08:53:36;17.30;99.90
31729;DHT22;18309;43.658;1.312;2023-04-29T08:56:08;17.30;99.90
31729;DHT22;18309;43.658;1.312;2023-04-29T08:58:37;17.20;99.90
31729;DHT22;18309;43.658;1.312;2023-04-29T09:01:07;17.30;99.90
31729;DHT22;18309;43.658;1.312;2023-04-29T09:06:21;17.50;99.90
31729;DHT22;18309;43.658;1.312;2023-04-29T09:08:47;17.50;99.90
31729;DHT22;18309;43.658;1.312;2023-04-29T09:11:13;17.70;99.90
31729;DHT22;18309;43.658;1.312;2023-04-29T09:13:39;17.60;99.90
31729;DHT22;18309;43.658;1.312;2023-04-29T09:16:10;17.80;99.90
31729;DHT22;18309;43.658;1.312;2023-04-29T09:18:47;17.80;99.90
31729;DHT22;18309;43.658;1.312;2023-04-29T09:21:17;17.80;99.90
31729;DHT22;18309;43.658;1.312;2023-04-29T09:23:44;17.80;99.90
31729;DHT22;18309;43.658;1.312;2023-04-29T09:26:10;18.00;99.90
31729;DHT22;18309;43.658;1.312;2023-04-29T09:28:36;17.90;99.90
31729;DHT22;18309;43.658;1.312;2023-04-29T09:31:04;18.00;99.90
31729;DHT22;18309;43.658;1.312;2023-04-29T09:33:31;18.10;99.90
31729;DHT22;18309;43.658;1.312;2023-04-29T09:36:13;18.00;99.90
31729;DHT22;18309;43.658;1.312;2023-04-29T09:38:53;18.10;99.90
31729;DHT22;18309;43.658;1.312;2023-04-29T09:41:22;18.30;99.90
31729;DHT22;18309;43.658;1.312;2023-04-29T09:44:05;18.30;99.90
31729;DHT22;18309;43.658;1.312;2023-04-29T09:46:35;18.30;99.90
31729;DHT22;18309;43.658;1.312;2023-04-29T09:49:01;18.30;99.90
31729;DHT22;18309;43.658;1.312;2023-04-29T09:51:27;18.40;99.90
31729;DHT22;18309;43.658;1.312;2023-04-29T09:53:58;18.40;99.90
31729;DHT22;18309;43.658;1.312;2023-04-29T09:56:23;18.50;99.90
31729;DHT22;18309;43.658;1.312;2023-04-29T09:58:53;18.60;99.90
31729;DHT22;18309;43.658;1.312;2023-04-29T10:01:21;18.50;99.90
31729;DHT22;18309;43.658;1.312;2023-04-29T10:03:47;18.60;99.90
31729;DHT22;18309;43.658;1.312;2023-04-29T10:06:16;18.70;99.90
31729;DHT22;18309;43.658;1.312;2023-04-29T10:08:43;18.70;99.90
31729;DHT22;18309;43.658;1.312;2023-04-29T10:11:12;18.60;99.90
31729;DHT22;18309;43.658;1.312;2023-04-29T10:13:41;18.40;99.90
31729;DHT22;18309;43.658;1.312;2023-04-29T10:18:48;18.40;99.90
31729;DHT22;18309;43.658;1.312;2023-04-29T10:21:20;18.50;99.90
31729;DHT22;18309;43.658;1.312;2023-04-29T10:23:47;18.60;99.90
31729;DHT22;18309;43.658;1.312;2023-04-29T10:26:15;18.70;99.90
31729;DHT22;18309;43.658;1.312;2023-04-29T10:28:45;18.60;99.90
31729;DHT22;18309;43.658;1.312;2023-04-29T10:31:13;18.60;99.90
31729;DHT22;18309;43.658;1.312;2023-04-29T10:33:42;18.50;99.90
31729;DHT22;18309;43.658;1.312;2023-04-29T10:36:13;18.50;99.90
31729;DHT22;18309;43.658;1.312;2023-04-29T10:38:46;18.60;99.90
31729;DHT22;18309;43.658;1.312;2023-04-29T10:41:24;18.60;99.90
31729;DHT22;18309;43.658;1.312;2023-04-29T10:43:54;18.40;99.90
31729;DHT22;18309;43.658;1.312;2023-04-29T10:46:21;18.40;99.90
31729;DHT22;18309;43.658;1.312;2023-04-29T10:48:49;18.50;99.90
31729;DHT22;18309;43.658;1.312;2023-04-29T10:51:44;18.60;99.90
31729;DHT22;18309;43.658;1.312;2023-04-29T10:54:16;18.70;99.90
31729;DHT22;18309;43.658;1.312;2023-04-29T10:56:52;18.90;99.90
31729;DHT22;18309;43.658;1.312;2023-04-29T10:59:43;19.10;99.90
31729;DHT22;18309;43.658;1.312;2023-04-29T11:02:07;19.30;99.90
31729;DHT22;18309;43.658;1.312;2023-04-29T11:04:34;19.40;99.90
31729;DHT22;18309;43.658;1.312;2023-04-29T11:07:28;19.40;99.90
31729;DHT22;18309;43.658;1.312;2023-04-29T11:09:54;19.30;99.90
31729;DHT22;18309;43.658;1.312;2023-04-29T11:12:20;19.20;99.90
31729;DHT22;18309;43.658;1.312;2023-04-29T11:14:50;19.30;99.90
31729;DHT22;18309;43.658;1.312;2023-04-29T11:17:17;19.40;99.90
31729;DHT22;18309;43.658;1.312;2023-04-29T11:19:48;19.30;99.90
31729;DHT22;18309;43.658;1.312;2023-04-29T11:24:56;19.40;99.90
31729;DHT22;18309;43.658;1.312;2023-04-29T11:27:24;19.50;99.90
31729;DHT22;18309;43.658;1.312;2023-04-29T11:29:52;19.50;99.90
31729;DHT22;18309;43.658;1.312;2023-04-29T11:32:23;19.50;99.90
31729;DHT22;18309;43.658;1.312;2023-04-29T11:34:50;19.50;99.90
31729;DHT22;18309;43.658;1.312;2023-04-29T11:37:24;19.20;99.90
31729;DHT22;18309;43.658;1.312;2023-04-29T11:39:51;19.30;99.90
31729;DHT22;18309;43.658;1.312;2023-04-29T11:42:23;19.20;99.90
31729;DHT22;18309;43.658;1.312;2023-04-29T11:44:54;19.30;99.90
31729;DHT22;18309;43.658;1.312;2023-04-29T11:47:28;19.40;99.90
31729;DHT22;18309;43.658;1.312;2023-04-29T11:50:05;19.20;99.90
31729;DHT22;18309;43.658;1.312;2023-04-29T11:52:32;19.00;99.90
31729;DHT22;18309;43.658;1.312;2023-04-29T11:54:59;18.90;99.90
31729;DHT22;18309;43.658;1.312;2023-04-29T11:57:25;19.00;99.90
31729;DHT22;18309;43.658;1.312;2023-04-29T11:59:51;18.90;99.90
31729;DHT22;18309;43.658;1.312;2023-04-29T12:02:21;18.90;99.90
31729;DHT22;18309;43.658;1.312;2023-04-29T12:04:48;18.90;99.90
31729;DHT22;18309;43.658;1.312;2023-04-29T12:07:14;18.90;99.90
31729;DHT22;18309;43.658;1.312;2023-04-29T12:09:45;18.90;99.90
31729;DHT22;18309;43.658;1.312;2023-04-29T12:12:12;18.90;99.90
31729;DHT22;18309;43.658;1.312;2023-04-29T12:14:39;18.90;99.90
31729;DHT22;18309;43.658;1.312;2023-04-29T12:17:05;18.90;99.90
31729;DHT22;18309;43.658;1.312;2023-04-29T12:19:31;18.70;99.90
31729;DHT22;18309;43.658;1.312;2023-04-29T12:22:02;18.60;99.90
31729;DHT22;18309;43.658;1.312;2023-04-29T12:24:27;18.70;99.90
31729;DHT22;18309;43.658;1.312;2023-04-29T12:26:56;18.70;99.90
31729;DHT22;18309;43.658;1.312;2023-04-29T12:29:24;18.70;99.90
31729;DHT22;18309;43.658;1.312;2023-04-29T12:31:50;18.60;99.90
31729;DHT22;18309;43.658;1.312;2023-04-29T12:34:23;18.60;99.90
31729;DHT22;18309;43.658;1.312;2023-04-29T12:36:49;18.60;99.90
31729;DHT22;18309;43.658;1.312;2023-04-29T12:39:15;18.50;99.90
31729;DHT22;18309;43.658;1.312;2023-04-29T12:41:41;18.50;99.90
31729;DHT22;18309;43.658;1.312;2023-04-29T12:44:07;18.40;99.90
31729;DHT22;18309;43.658;1.312;2023-04-29T12:46:39;18.30;99.90
31729;DHT22;18309;43.658;1.312;2023-04-29T12:49:05;18.30;99.90
31729;DHT22;18309;43.658;1.312;2023-04-29T12:51:32;18.40;99.90
31729;DHT22;18309;43.658;1.312;2023-04-29T12:54:02;18.40;99.90
31729;DHT22;18309;43.658;1.312;2023-04-29T12:56:31;18.30;99.90
31729;DHT22;18309;43.658;1.312;2023-04-29T12:59:04;18.30;99.90
31729;DHT22;18309;43.658;1.312;2023-04-29T13:01:31;18.30;99.90
31729;DHT22;18309;43.658;1.312;2023-04-29T13:03:57;18.30;99.90
31729;DHT22;18309;43.658;1.312;2023-04-29T13:06:22;18.30;99.90
31729;DHT22;18309;43.658;1.312;2023-04-29T13:08:48;18.40;99.90
31729;DHT22;18309;43.658;1.312;2023-04-29T13:11:15;18.50;99.90
31729;DHT22;18309;43.658;1.312;2023-04-29T13:13:41;18.60;99.90
31729;DHT22;18309;43.658;1.312;2023-04-29T13:16:07;18.60;99.90
31729;DHT22;18309;43.658;1.312;2023-04-29T13:18:33;18.70;99.90
31729;DHT22;18309;43.658;1.312;2023-04-29T13:20:58;18.60;99.90
31729;DHT22;18309;43.658;1.312;2023-04-29T13:23:24;18.60;99.90
31729;DHT22;18309;43.658;1.312;2023-04-29T13:25:50;18.50;99.90
31729;DHT22;18309;43.658;1.312;2023-04-29T13:28:16;18.50;99.90
31729;DHT22;18309;43.658;1.312;2023-04-29T13:30:41;18.50;99.90
31729;DHT22;18309;43.658;1.312;2023-04-29T13:33:07;18.60;99.90
31729;DHT22;18309;43.658;1.312;2023-04-29T13:35:33;18.70;99.90
31729;DHT22;18309;43.658;1.312;2023-04-29T13:38:03;18.80;99.90
31729;DHT22;18309;43.658;1.312;2023-04-29T13:40:29;18.90;99.90
31729;DHT22;18309;43.658;1.312;2023-04-29T13:42:55;18.90;99.90
31729;DHT22;18309;43.658;1.312;2023-04-29T13:45:20;18.90;99.90
31729;DHT22;18309;43.658;1.312;2023-04-29T13:47:46;18.90;99.90
31729;DHT22;18309;43.658;1.312;2023-04-29T13:50:12;19.00;99.90
31729;DHT22;18309;43.658;1.312;2023-04-29T13:52:37;19.00;99.90
31729;DHT22;18309;43.658;1.312;2023-04-29T13:55:03;19.20;99.90
31729;DHT22;18309;43.658;1.312;2023-04-29T13:57:29;19.20;99.90
31729;DHT22;18309;43.658;1.312;2023-04-29T13:59:55;19.20;99.90
31729;DHT22;18309;43.658;1.312;2023-04-29T14:02:21;19.30;99.90
31729;DHT22;18309;43.658;1.312;2023-04-29T14:04:47;19.30;99.90
31729;DHT22;18309;43.658;1.312;2023-04-29T14:07:13;19.30;99.90
31729;DHT22;18309;43.658;1.312;2023-04-29T14:09:38;19.30;99.90
31729;DHT22;18309;43.658;1.312;2023-04-29T14:12:05;19.20;99.90
31729;DHT22;18309;43.658;1.312;2023-04-29T14:14:30;19.10;99.90
31729;DHT22;18309;43.658;1.312;2023-04-29T14:16:56;19.10;99.90
31729;DHT22;18309;43.658;1.312;2023-04-29T14:19:22;19.10;99.90
31729;DHT22;18309;43.658;1.312;2023-04-29T14:21:48;19.10;99.90
31729;DHT22;18309;43.658;1.312;2023-04-29T14:24:15;19.10;99.90
31729;DHT22;18309;43.658;1.312;2023-04-29T14:26:41;19.20;99.90
31729;DHT22;18309;43.658;1.312;2023-04-29T14:29:07;19.20;99.90
31729;DHT22;18309;43.658;1.312;2023-04-29T14:31:34;19.00;99.90
31729;DHT22;18309;43.658;1.312;2023-04-29T14:34:02;19.00;99.90
31729;DHT22;18309;43.658;1.312;2023-04-29T14:36:28;19.10;99.90
31729;DHT22;18309;43.658;1.312;2023-04-29T14:38:54;19.10;99.90
31729;DHT22;18309;43.658;1.312;2023-04-29T14:41:20;19.00;99.90
31729;DHT22;18309;43.658;1.312;2023-04-29T14:43:46;19.00;99.90
31729;DHT22;18309;43.658;1.312;2023-04-29T14:46:12;18.90;99.90
31729;DHT22;18309;43.658;1.312;2023-04-29T14:48:38;18.90;99.90
31729;DHT22;18309;43.658;1.312;2023-04-29T14:51:04;18.90;99.90
31729;DHT22;18309;43.658;1.312;2023-04-29T14:53:30;18.90;99.90
31729;DHT22;18309;43.658;1.312;2023-04-29T14:55:56;19.00;99.90
31729;DHT22;18309;43.658;1.312;2023-04-29T14:58:22;19.00;99.90
31729;DHT22;18309;43.658;1.312;2023-04-29T15:00:48;19.00;99.90
31729;DHT22;18309;43.658;1.312;2023-04-29T15:03:16;19.10;99.90
31729;DHT22;18309;43.658;1.312;2023-04-29T15:05:42;19.10;99.90
31729;DHT22;18309;43.658;1.312;2023-04-29T15:08:08;19.00;99.90
31729;DHT22;18309;43.658;1.312;2023-04-29T15:10:34;19.00;99.90
31729;DHT22;18309;43.658;1.312;2023-04-29T15:12:59;19.00;99.90
31729;DHT22;18309;43.658;1.312;2023-04-29T15:15:25;19.00;99.90
31729;DHT22;18309;43.658;1.312;2023-04-29T15:17:51;19.00;99.90
31729;DHT22;18309;43.658;1.312;2023-04-29T15:20:17;19.00;99.90
31729;DHT22;18309;43.658;1.312;2023-04-29T15:22:43;19.00;99.90
31729;DHT22;18309;43.658;1.312;2023-04-29T15:25:09;19.00;99.90
31729;DHT22;18309;43.658;1.312;2023-04-29T15:27:35;19.00;99.90
31729;DHT22;18309;43.658;1.312;2023-04-29T15:30:01;19.00;99.90
31729;DHT22;18309;43.658;1.312;2023-04-29T15:32:27;19.00;99.90
31729;DHT22;18309;43.658;1.312;2023-04-29T15:35:03;19.00;99.90
31729;DHT22;18309;43.658;1.312;2023-04-29T15:37:31;19.00;99.90
31729;DHT22;18309;43.658;1.312;2023-04-29T15:39:58;19.00;99.90
31729;DHT22;18309;43.658;1.312;2023-04-29T15:42:24;19.00;99.90
31729;DHT22;18309;43.658;1.312;2023-04-29T15:44:50;19.00;99.90
31729;DHT22;18309;43.658;1.312;2023-04-29T15:47:16;19.00;99.90
31729;DHT22;18309;43.658;1.312;2023-04-29T15:49:42;19.00;99.90